createdAt,value
2018-08-16T00:01:47.319Z,7.40
2018-08-16T00:04:16.913Z,6.22
2018-08-16T00:06:46.607Z,7.03
2018-08-16T00:09:16.099Z,6.53
2018-08-16T00:11:46.131Z,6.72
2018-08-16T00:14:15.861Z,6.42
2018-08-16T00:16:45.308Z,6.15
2018-08-16T00:19:14.803Z,6.60
2018-08-16T00:21:44.347Z,7.10
2018-08-16T00:24:13.707Z,7.17
2018-08-16T00:26:43.706Z,7.58
2018-08-16T00:29:13.242Z,7.55
2018-08-16T00:31:42.683Z,7.47
2018-08-16T00:34:12.104Z,7.28
2018-08-16T00:36:42.670Z,7.00
2018-08-16T00:39:13.253Z,7.65
2018-08-16T00:41:43.806Z,7.17
2018-08-16T00:44:13.497Z,7.10
2018-08-16T00:46:43.080Z,6.92
2018-08-16T00:49:12.798Z,7.53
2018-08-16T00:54:11.162Z,6.65
2018-08-16T00:56:40.639Z,7.50
2018-08-16T00:59:10.031Z,6.42
2018-08-16T01:01:40.144Z,6.80
2018-08-16T01:04:09.550Z,7.00
2018-08-16T01:06:39.119Z,7.20
2018-08-16T01:09:10.590Z,7.55
2018-08-16T01:11:40.152Z,7.25
2018-08-16T01:14:10.344Z,7.50
2018-08-16T01:16:39.990Z,7.33
2018-08-16T01:19:10.207Z,6.95
2018-08-16T01:21:39.937Z,7.25
2018-08-16T01:24:09.637Z,8.63
2018-08-16T01:26:39.042Z,8.78
2018-08-16T01:29:08.539Z,7.25
2018-08-16T01:31:38.057Z,7.25
2018-08-16T01:34:07.909Z,7.95
2018-08-16T01:36:37.318Z,7.47
2018-08-16T01:39:08.596Z,8.05
2018-08-16T01:41:38.462Z,7.50
2018-08-16T01:44:08.249Z,7.87
2018-08-16T01:46:38.030Z,7.85
2018-08-16T01:49:24.464Z,7.08
2018-08-16T01:51:53.916Z,7.33
2018-08-16T01:54:24.424Z,6.90
2018-08-16T01:56:54.050Z,7.60
2018-08-16T01:59:24.324Z,7.35
2018-08-16T02:01:53.927Z,7.30
2018-08-16T02:04:23.394Z,7.87
2018-08-16T02:06:53.388Z,7.17
2018-08-16T02:09:23.719Z,7.60
2018-08-16T02:11:53.626Z,7.03
2018-08-16T02:14:23.177Z,7.50
2018-08-16T02:16:57.584Z,6.80
2018-08-16T02:19:27.644Z,7.30
2018-08-16T02:21:57.549Z,7.50
2018-08-16T02:24:26.928Z,6.97
2018-08-16T02:26:56.811Z,7.30
2018-08-16T02:29:26.214Z,8.10
2018-08-16T02:31:59.419Z,7.00
2018-08-16T02:34:32.989Z,7.33
2018-08-16T02:39:37.684Z,7.20
2018-08-16T02:42:13.955Z,7.10
2018-08-16T02:50:26.419Z,7.40
2018-08-16T02:52:57.985Z,8.23
2018-08-16T02:55:30.543Z,7.60
2018-08-16T02:58:02.878Z,7.30
2018-08-16T03:16:36.197Z,7.80
2018-08-16T03:19:09.534Z,8.03
2018-08-16T03:21:44.780Z,8.85
2018-08-16T03:24:24.048Z,9.28
2018-08-16T03:27:04.028Z,8.98
2018-08-16T03:29:38.081Z,9.13
2018-08-16T03:32:17.503Z,8.75
2018-08-16T03:34:57.438Z,9.03
2018-08-16T03:37:31.667Z,8.73
2018-08-16T03:40:18.345Z,8.13
2018-08-16T03:43:21.781Z,8.48
2018-08-16T03:45:56.042Z,8.63
2018-08-16T03:48:30.989Z,8.68
2018-08-16T03:51:28.154Z,10.28
2018-08-16T03:54:21.516Z,9.23
2018-08-16T03:57:03.320Z,9.23
2018-08-16T04:02:39.634Z,9.53
2018-08-16T04:05:54.154Z,7.92
2018-08-16T04:25:25.881Z,9.60
2018-08-16T04:28:21.919Z,8.93
2018-08-16T04:44:48.200Z,9.85
2018-08-16T04:47:30.363Z,9.90
2018-08-16T04:50:18.928Z,10.23
2018-08-16T04:53:07.372Z,11.57
2018-08-16T04:55:38.367Z,10.35
2018-08-16T04:58:10.804Z,10.10
2018-08-16T05:00:42.464Z,10.53
2018-08-16T05:03:38.258Z,11.35
2018-08-16T05:06:09.655Z,12.47
2018-08-16T05:12:30.120Z,11.97
2018-08-16T05:15:01.490Z,12.90
2018-08-16T05:17:42.751Z,10.30
2018-08-16T05:20:13.936Z,10.93
2018-08-16T05:22:53.703Z,11.20
2018-08-16T05:50:15.533Z,10.10
2018-08-16T05:52:58.194Z,9.23
2018-08-16T05:59:53.393Z,8.88
2018-08-16T06:05:37.431Z,8.68
2018-08-16T06:08:16.897Z,9.43
2018-08-16T06:11:01.413Z,9.78
2018-08-16T06:13:33.252Z,9.60
2018-08-16T06:16:09.138Z,9.10
2018-08-16T06:18:48.641Z,10.10
2018-08-16T06:21:22.242Z,9.23
2018-08-16T06:23:52.959Z,9.90
2018-08-16T06:26:40.551Z,8.60
2018-08-16T06:29:17.737Z,10.55
2018-08-16T06:31:57.488Z,9.75
2018-08-16T06:34:32.733Z,10.48
2018-08-16T06:37:10.297Z,10.70
2018-08-16T06:39:51.139Z,10.75
2018-08-16T06:42:31.866Z,9.65
2018-08-16T06:45:15.035Z,9.43
2018-08-16T06:56:32.562Z,9.80
2018-08-16T06:59:08.655Z,11.25
2018-08-16T07:01:49.247Z,10.10
2018-08-16T07:04:25.221Z,9.90
2018-08-16T07:07:04.008Z,10.08
2018-08-16T07:09:36.731Z,10.70
2018-08-16T07:12:08.572Z,9.15
2018-08-16T07:14:45.053Z,8.65
2018-08-16T07:17:19.201Z,10.18
2018-08-16T07:20:03.263Z,9.33
2018-08-16T07:22:44.924Z,10.08
2018-08-16T07:28:22.583Z,9.30
2018-08-16T07:34:08.823Z,8.93
2018-08-16T07:37:12.258Z,8.40
2018-08-16T07:40:04.969Z,8.53
2018-08-16T07:46:06.393Z,7.85
2018-08-16T07:48:51.712Z,7.60
2018-08-16T23:49:09.688Z,6.53
2018-08-16T23:58:22.025Z,6.95
